New Creation — 3EGO6 — position and weather

sailwx.info

Track history (hours):
 
Tides and Currents Weather Stations Pressure Air Temp Water Temp Dewpoint Dewpoint Depression Visibility Wind Speed Wind Dir Waves Ship Positions

New Creation

Last reported at 2016-Jun-20 00:33 UTC. Time now 2016-Jun-29 16:27 UTC.
Position N 22°19' E 120°04'.
Warning: this ship's position is 9 days out of date.

Length 176 m; draft 6.2 m.

Type: Cargo ship. MMSI: 353507000.

Date/timePositionNaut miles runAvg speedWind from/ knotsBaromVisibWave heightAir tempDewpointWater temp
2016-Jun-20 00:33N 22°19' E 120°04'1313.4
2016-Jun-19 23:33N 22°31' E 119°58'1413.6
2016-Jun-19 22:32N 22°45' E 119°57'  
2016-Jun-17 08:33N 22°50' E 120°02'1212.1
2016-Jun-17 07:33N 22°38' E 120°06'9 9.5
2016-Jun-17 06:33N 22°33' E 120°15'4 3.0
2016-Jun-17 05:23N 22°35' E 120°18'0 0.0
2016-Jun-17 04:29N 22°35' E 120°18'0 0.0
2016-Jun-17 03:29N 22°35' E 120°18'0 0.0
2016-Jun-17 02:29N 22°35' E 120°18'0 0.0
2016-Jun-17 01:29N 22°35' E 120°18'0 0.0
2016-Jun-17 00:29N 22°35' E 120°18'0 0.0
2016-Jun-16 23:29N 22°35' E 120°18'0 0.0
2016-Jun-16 22:29N 22°35' E 120°18'0 0.0
2016-Jun-16 21:23N 22°35' E 120°18'0 0.0
2016-Jun-16 20:29N 22°35' E 120°18'0 0.0
2016-Jun-16 19:29N 22°35' E 120°18'0 0.0
2016-Jun-16 18:29N 22°35' E 120°18'0 0.0
2016-Jun-16 17:29N 22°35' E 120°18'0 0.0
2016-Jun-16 16:29N 22°35' E 120°18'0 0.0
2016-Jun-16 15:29N 22°35' E 120°18'0 0.0
2016-Jun-16 14:29N 22°35' E 120°18'0 0.0
2016-Jun-16 13:29N 22°35' E 120°18'0 0.0
2016-Jun-16 11:23N 22°35' E 120°18'0 0.0
2016-Jun-16 10:29N 22°35' E 120°18'0 0.0
2016-Jun-16 09:29N 22°35' E 120°18'0 0.0
2016-Jun-16 08:29N 22°35' E 120°18'0 0.0
2016-Jun-16 07:29N 22°35' E 120°18'0 0.0
2016-Jun-16 06:29N 22°35' E 120°18'0 0.0
2016-Jun-16 04:29N 22°35' E 120°18'0 0.0
2016-Jun-16 03:29N 22°35' E 120°18'0 0.0
2016-Jun-16 02:29N 22°35' E 120°18'0 0.0
2016-Jun-16 00:26N 22°35' E 120°18'0 0.0
2016-Jun-15 22:32N 22°35' E 120°18'0 0.0
2016-Jun-15 21:32N 22°35' E 120°18'0 0.0
2016-Jun-15 20:26N 22°35' E 120°18'0 0.0
2016-Jun-15 17:29N 22°35' E 120°18'0 0.0
2016-Jun-15 16:29N 22°35' E 120°18'0 0.0
2016-Jun-15 15:29N 22°35' E 120°18'0 0.0
2016-Jun-15 14:29N 22°35' E 120°18'0 0.0
2016-Jun-15 13:29N 22°35' E 120°18'0 0.0
2016-Jun-15 12:29N 22°35' E 120°18'0 0.0
2016-Jun-15 11:17N 22°35' E 120°18'0 0.0
2016-Jun-15 10:29N 22°35' E 120°18'2 2.2
2016-Jun-15 09:33N 22°37' E 120°16'5 5.2
2016-Jun-15 08:33N 22°38' E 120°11'1 0.7
2016-Jun-15 07:33N 22°37' E 120°10'1 0.5
2016-Jun-15 06:33N 22°37' E 120°10'2 1.5
2016-Jun-15 05:33N 22°36' E 120°08'10 9.3
2016-Jun-15 04:30N 22°30' E 120°00'  
Track history (hours):
 
Tides and Currents Weather Stations Pressure Air Temp Water Temp Dewpoint Dewpoint Depression Visibility Wind Speed Wind Dir Waves Ship Positions

New Creation

Last reported at 2016-Jun-20 00:33 UTC. Time now 2016-Jun-29 16:28 UTC.
Position N 22°19' E 120°04'.
Warning: this ship's position is 9 days out of date.

Length 176 m; draft 6.2 m.

Type: Cargo ship. MMSI: 353507000.

Date/timePositionNaut miles runAvg speedWind from/ knotsBaromVisibWave heightAir tempDewpointWater temp
2016-Jun-20 00:33N 22°19' E 120°04'1313.4
2016-Jun-19 23:33N 22°31' E 119°58'1413.6
2016-Jun-19 22:32N 22°45' E 119°57'  
2016-Jun-17 08:33N 22°50' E 120°02'1212.1
2016-Jun-17 07:33N 22°38' E 120°06'9 9.5
2016-Jun-17 06:33N 22°33' E 120°15'4 3.0
2016-Jun-17 05:23N 22°35' E 120°18'0 0.0
2016-Jun-17 04:29N 22°35' E 120°18'0 0.0
2016-Jun-17 03:29N 22°35' E 120°18'0 0.0
2016-Jun-17 02:29N 22°35' E 120°18'0 0.0
2016-Jun-17 01:29N 22°35' E 120°18'0 0.0
2016-Jun-17 00:29N 22°35' E 120°18'0 0.0
2016-Jun-16 23:29N 22°35' E 120°18'0 0.0
2016-Jun-16 22:29N 22°35' E 120°18'0 0.0
2016-Jun-16 21:23N 22°35' E 120°18'0 0.0
2016-Jun-16 20:29N 22°35' E 120°18'0 0.0
2016-Jun-16 19:29N 22°35' E 120°18'0 0.0
2016-Jun-16 18:29N 22°35' E 120°18'0 0.0
2016-Jun-16 17:29N 22°35' E 120°18'0 0.0
2016-Jun-16 16:29N 22°35' E 120°18'0 0.0
2016-Jun-16 15:29N 22°35' E 120°18'0 0.0
2016-Jun-16 14:29N 22°35' E 120°18'0 0.0
2016-Jun-16 13:29N 22°35' E 120°18'0 0.0
2016-Jun-16 11:23N 22°35' E 120°18'0 0.0
2016-Jun-16 10:29N 22°35' E 120°18'0 0.0
2016-Jun-16 09:29N 22°35' E 120°18'0 0.0
2016-Jun-16 08:29N 22°35' E 120°18'0 0.0
2016-Jun-16 07:29N 22°35' E 120°18'0 0.0
2016-Jun-16 06:29N 22°35' E 120°18'0 0.0
2016-Jun-16 04:29N 22°35' E 120°18'0 0.0
2016-Jun-16 03:29N 22°35' E 120°18'0 0.0
2016-Jun-16 02:29N 22°35' E 120°18'0 0.0
2016-Jun-16 00:26N 22°35' E 120°18'0 0.0
2016-Jun-15 22:32N 22°35' E 120°18'0 0.0
2016-Jun-15 21:32N 22°35' E 120°18'0 0.0
2016-Jun-15 20:26N 22°35' E 120°18'0 0.0
2016-Jun-15 17:29N 22°35' E 120°18'0 0.0
2016-Jun-15 16:29N 22°35' E 120°18'0 0.0
2016-Jun-15 15:29N 22°35' E 120°18'0 0.0
2016-Jun-15 14:29N 22°35' E 120°18'0 0.0
2016-Jun-15 13:29N 22°35' E 120°18'0 0.0
2016-Jun-15 12:29N 22°35' E 120°18'0 0.0
2016-Jun-15 11:17N 22°35' E 120°18'0 0.0
2016-Jun-15 10:29N 22°35' E 120°18'2 2.2
2016-Jun-15 09:33N 22°37' E 120°16'5 5.2
2016-Jun-15 08:33N 22°38' E 120°11'1 0.7
2016-Jun-15 07:33N 22°37' E 120°10'1 0.5
2016-Jun-15 06:33N 22°37' E 120°10'2 1.5
2016-Jun-15 05:33N 22°36' E 120°08'10 9.3
2016-Jun-15 04:30N 22°30' E 120°00'  

Dump ship's entire track history